Bryant, South Dakota
Current Conditions -  °F | °C
As of 5:53 PM on Sunday 23 Nov 2014 (Local Time) from KATY Reporting Station
Overcast Overcast  
Wind Chill: 14°   Ceiling: 2100
Heat Index: 28°   Visibility: 10mi
Dew Point: 21°   Wind: 24mph
Humidity: 75%   Direction: 310°NW
Pressure: 29.53"   Gusts: 29mph
Location:  44.59°N, 97.47°W
Report Text: KATY 232353Z AUTO 31021G25KT 10SM OVC021 M02/M06 A2953 RMK AO2 PK WND 31028/2322 SLP015 T10221061 10033 21022 51012
Loading
Personal Weather Stations






























Interactive Weather Map New forecast layout! Learn more

10-Day Weather Forecast

Advertisements
Track Severe Weather on mobile